Time;durP1;ratioP1;P1;durP2;ratioP2;P2;SDS_P1;SDS_P2;PMS_P1;PMS_P2;Temp;Humidity;BMP_temperature;BMP_pressure;BME280_temperature;BME280_humidity;BME280_pressure;Samples;Min_cycle;Max_cycle;Signal;HPM_P1;HPM_P2
2023/10/27 00:01:08;;;;;;;4.13;3.07;;;17.20;74.30;18.20;98453.00;;;;5050097;28;20178;-53
2023/10/27 00:03:35;;;;;;;3.67;3.23;;;17.10;74.30;18.20;98446.00;;;;5049838;28;20209;-53
2023/10/27 00:06:01;;;;;;;5.17;2.80;;;17.00;74.10;18.20;98447.00;;;;5050878;28;20182;-53
2023/10/27 00:08:26;;;;;;;4.77;3.20;;;17.00;74.30;18.20;98458.00;;;;5050944;28;20182;-52
2023/10/27 00:10:53;;;;;;;5.80;3.33;;;17.10;74.30;18.20;98460.00;;;;5050625;28;20178;-53
2023/10/27 00:13:19;;;;;;;4.73;3.20;;;17.10;74.30;18.20;98458.00;;;;5050784;28;20217;-53
2023/10/27 00:15:45;;;;;;;4.30;2.90;;;17.00;74.40;18.20;98446.00;;;;5067274;28;20185;-53
2023/10/27 00:18:12;;;;;;;5.40;3.50;;;17.00;74.20;18.20;98457.00;;;;5070495;28;20180;-52
2023/10/27 00:20:38;;;;;;;4.70;3.23;;;16.90;73.70;18.10;98454.00;;;;5070601;28;20276;-54
2023/10/27 00:23:04;;;;;;;4.20;3.13;;;16.90;74.20;18.10;98452.00;;;;5071537;28;20747;-53
2023/10/27 00:25:29;;;;;;;4.30;3.20;;;16.90;74.10;18.10;98445.00;;;;5071209;28;20185;-53
2023/10/27 00:27:55;;;;;;;3.63;3.10;;;16.90;74.20;18.10;98447.00;;;;5071374;28;20644;-53
2023/10/27 00:30:21;;;;;;;5.20;3.13;;;16.90;74.30;18.10;98438.00;;;;5070818;28;20666;-53
2023/10/27 00:32:47;;;;;;;6.07;3.43;;;16.90;74.20;18.10;98440.00;;;;5071473;28;20213;-53
2023/10/27 00:35:12;;;;;;;5.17;2.97;;;16.80;74.10;18.10;98371.00;;;;5063627;28;20186;-53
2023/10/27 00:37:38;;;;;;;4.63;3.00;;;16.90;74.10;18.10;98438.00;;;;5071450;28;20195;-53
2023/10/27 00:40:04;;;;;;;5.03;3.03;;;16.80;73.90;18.00;98443.00;;;;5062345;28;20206;-52
2023/10/27 00:42:30;;;;;;;3.20;2.73;;;16.90;74.50;18.10;98444.00;;;;5070672;28;20219;-53
2023/10/27 00:44:56;;;;;;;5.13;3.00;;;16.90;74.40;18.00;98436.00;;;;5071003;28;20177;-53
2023/10/27 00:47:23;;;;;;;5.47;3.30;;;16.90;74.50;18.00;98433.00;;;;5070095;28;20181;-53
2023/10/27 00:49:49;;;;;;;4.73;2.90;;;16.90;74.30;18.00;98438.00;;;;5069790;28;20537;-53
2023/10/27 00:52:15;;;;;;;3.80;3.10;;;16.80;74.30;18.00;98448.00;;;;5069940;28;20213;-53
2023/10/27 00:54:43;;;;;;;5.37;3.13;;;16.80;74.30;18.00;98433.00;;;;5068581;28;20181;-53
2023/10/27 00:57:09;;;;;;;4.03;3.23;;;16.80;73.60;17.90;98442.00;;;;5068456;28;20192;-53
2023/10/27 00:59:36;;;;;;;5.40;3.10;;;16.70;73.80;17.90;98435.00;;;;5069505;28;20212;-53
2023/10/27 01:02:02;;;;;;;6.43;3.37;;;16.70;74.30;17.90;98443.00;;;;5068043;28;20178;-53
2023/10/27 01:04:28;;;;;;;6.00;3.50;;;16.60;73.70;17.80;98445.00;;;;5069797;28;20597;-53
2023/10/27 01:06:54;;;;;;;7.23;3.40;;;16.50;73.90;17.80;98437.00;;;;5069669;28;20267;-53
2023/10/27 01:09:20;;;;;;;4.50;3.17;;;16.50;74.70;17.80;98436.00;;;;5068211;28;20185;-53
2023/10/27 01:11:46;;;;;;;5.10;3.07;;;16.50;74.60;17.80;98429.00;;;;5053017;28;20550;-53
2023/10/27 01:14:12;;;;;;;4.67;2.80;;;16.60;74.60;17.80;98445.00;;;;5048160;28;20199;-53
2023/10/27 01:16:37;;;;;;;6.33;3.20;;;16.50;73.80;17.70;98434.00;;;;5056490;28;20184;-53
2023/10/27 01:19:03;;;;;;;7.43;3.30;;;16.30;74.60;17.60;98435.00;;;;5069585;28;20212;-53
2023/10/27 01:21:29;;;;;;;6.37;3.37;;;16.40;75.20;17.60;98434.00;;;;5069533;28;20230;-53
2023/10/27 01:23:55;;;;;;;6.63;3.20;;;16.30;74.40;17.60;98443.00;;;;5069368;28;20262;-53
2023/10/27 01:26:20;;;;;;;8.47;3.23;;;16.30;74.70;17.60;98439.00;;;;5068021;28;20194;-52
2023/10/27 01:28:46;;;;;;;5.93;2.93;;;16.30;74.10;17.60;98437.00;;;;5069065;28;20192;-52
2023/10/27 01:31:12;;;;;;;6.13;3.50;;;16.30;74.50;17.50;98443.00;;;;5068795;28;20713;-53
2023/10/27 01:33:38;;;;;;;5.77;3.10;;;16.10;75.00;17.40;98437.00;;;;5069009;28;20666;-52
2023/10/27 01:36:04;;;;;;;5.30;3.20;;;15.90;75.20;17.40;98434.00;;;;5069080;28;20547;-53
2023/10/27 01:38:30;;;;;;;4.90;2.87;;;16.00;75.20;17.30;98443.00;;;;5067660;28;20187;-53
2023/10/27 01:40:56;;;;;;;5.47;3.07;;;16.10;75.50;17.40;98433.00;;;;5068226;28;20166;-52
2023/10/27 01:43:22;;;;;;;6.00;2.90;;;16.10;74.60;17.40;98426.00;;;;5068631;28;20680;-52
2023/10/27 01:45:47;;;;;;;7.33;3.40;;;16.10;74.50;17.30;98430.00;;;;5068459;28;20275;-52
2023/10/27 01:48:13;;;;;;;5.53;3.27;;;15.90;74.50;17.30;98428.00;;;;5067249;28;20268;-52
2023/10/27 01:50:39;;;;;;;5.53;2.90;;;16.00;75.40;17.30;98431.00;;;;5067205;28;20180;-53
2023/10/27 01:53:04;;;;;;;4.23;2.93;;;16.00;74.90;17.30;98430.00;;;;5068601;28;20619;-52
2023/10/27 01:55:30;;;;;;;5.10;2.80;;;16.00;75.80;17.20;98428.00;;;;5068908;28;20297;-52
2023/10/27 01:57:57;;;;;;;7.17;2.97;;;16.00;75.10;17.20;98419.00;;;;5068653;28;20185;-52
2023/10/27 02:00:23;;;;;;;4.23;2.80;;;15.90;75.10;17.20;98423.00;;;;5068049;28;20212;-56
2023/10/27 02:02:48;;;;;;;3.93;2.83;;;16.10;74.90;17.20;98417.00;;;;5068567;28;20204;-52
2023/10/27 02:05:14;;;;;;;5.60;2.80;;;16.10;74.60;17.20;98419.00;;;;5068459;28;20670;-52
2023/10/27 02:07:40;;;;;;;8.20;3.70;;;16.00;74.60;17.20;98426.00;;;;5068317;28;20177;-52
2023/10/27 02:10:06;;;;;;;8.43;3.30;;;15.70;73.60;17.10;98416.00;;;;5068128;28;20653;-53
2023/10/27 02:12:32;;;;;;;6.13;2.93;;;15.70;75.20;17.10;98408.00;;;;5068376;28;20287;-53
2023/10/27 02:14:58;;;;;;;5.23;2.80;;;15.80;75.20;17.10;98399.00;;;;5068070;28;20277;-53
2023/10/27 02:17:24;;;;;;;5.07;2.60;;;15.90;75.00;17.10;98397.00;;;;5068575;28;20599;-52
2023/10/27 02:19:50;;;;;;;4.97;3.00;;;16.00;75.00;17.20;98386.00;;;;5068132;28;20613;-52
2023/10/27 02:22:17;;;;;;;6.40;3.10;;;16.10;74.70;17.20;98384.00;;;;5068716;28;20209;-53
2023/10/27 02:24:43;;;;;;;5.63;2.83;;;16.10;74.10;17.20;98382.00;;;;5070497;28;20510;-53
2023/10/27 02:27:09;;;;;;;4.97;2.60;;;16.10;74.60;17.20;98379.00;;;;5068951;28;20267;-53
2023/10/27 02:29:34;;;;;;;4.83;2.90;;;16.00;74.10;17.20;98368.00;;;;5068857;28;20181;-53
2023/10/27 02:32:00;;;;;;;5.97;3.10;;;15.90;73.40;17.10;98368.00;;;;5068576;28;20548;-53
2023/10/27 02:34:26;;;;;;;5.27;2.93;;;15.90;74.50;17.10;98299.00;;;;5068715;28;20585;-52
2023/10/27 02:36:51;;;;;;;4.23;2.80;;;15.80;74.40;17.10;98363.00;;;;5069693;28;20188;-53
2023/10/27 02:39:17;;;;;;;6.60;3.00;;;15.90;74.70;17.10;98367.00;;;;5069088;28;20308;-53
2023/10/27 02:41:43;;;;;;;6.43;2.80;;;16.00;74.40;17.10;98365.00;;;;5066719;28;20550;-53
2023/10/27 02:44:09;;;;;;;4.43;2.70;;;15.80;74.10;17.10;98357.00;;;;5067828;28;20198;-53
2023/10/27 02:46:35;;;;;;;9.07;3.07;;;15.80;74.10;17.10;98359.00;;;;5067803;28;20272;-52
2023/10/27 02:49:02;;;;;;;3.87;2.83;;;15.80;74.40;17.00;98345.00;;;;5067785;28;20203;-53
2023/10/27 02:51:28;;;;;;;4.37;2.63;;;15.80;74.40;17.00;98349.00;;;;5061598;28;20565;-52
2023/10/27 02:53:54;;;;;;;7.00;3.10;;;15.90;74.40;17.10;98352.00;;;;5046918;28;20200;-53
2023/10/27 02:56:20;;;;;;;6.27;2.90;;;16.00;74.00;17.10;98349.00;;;;5047756;28;20674;-53
2023/10/27 02:58:46;;;;;;;5.43;2.70;;;16.00;74.10;17.10;98342.00;;;;5047619;28;20263;-53
2023/10/27 03:01:14;;;;;;;5.80;2.80;;;16.00;74.00;17.10;98340.00;;;;5048866;28;20188;-57
2023/10/27 03:03:40;;;;;;;6.70;2.90;;;16.10;73.60;17.10;98335.00;;;;5052714;28;20634;-53
2023/10/27 03:06:05;;;;;;;5.23;2.93;;;16.00;73.80;17.10;98335.00;;;;5050618;28;20609;-52
2023/10/27 03:08:32;;;;;;;3.80;2.53;;;16.00;73.90;17.10;98327.00;;;;5050727;28;20187;-52
2023/10/27 03:10:57;;;;;;;6.63;2.87;;;16.00;73.80;17.10;98327.00;;;;5047518;28;20177;-52
2023/10/27 03:13:23;;;;;;;5.80;2.73;;;16.00;73.70;17.10;98331.00;;;;5048504;28;20287;-53
2023/10/27 03:15:49;;;;;;;6.70;2.87;;;16.10;73.80;17.10;98329.00;;;;5048896;28;20188;-53
2023/10/27 03:18:15;;;;;;;5.00;2.67;;;16.10;73.70;17.10;98319.00;;;;5068838;28;20219;-52
2023/10/27 03:20:40;;;;;;;5.27;2.70;;;16.10;73.50;17.20;98322.00;;;;5068546;28;20232;-53
2023/10/27 03:23:06;;;;;;;3.37;2.33;;;16.10;73.50;17.10;98321.00;;;;5068633;28;20247;-52
2023/10/27 03:25:32;;;;;;;4.07;2.53;;;16.10;73.50;17.20;98325.00;;;;5068788;28;20659;-52
2023/10/27 03:27:57;;;;;;;5.73;2.80;;;16.00;73.50;17.20;98317.00;;;;5069363;28;20181;-53
2023/10/27 03:30:24;;;;;;;5.63;2.50;;;16.00;73.50;17.20;98321.00;;;;5070858;28;20221;-53
2023/10/27 03:32:50;;;;;;;4.73;2.50;;;16.00;73.70;17.20;98325.00;;;;5070881;28;20204;-52
2023/10/27 03:35:16;;;;;;;4.20;2.53;;;16.10;73.40;17.20;98329.00;;;;5068756;28;20181;-51
2023/10/27 03:37:42;;;;;;;7.30;2.83;;;16.10;73.40;17.20;98318.00;;;;5067576;28;20195;-52
2023/10/27 03:40:08;;;;;;;5.57;2.50;;;16.20;73.30;17.30;98330.00;;;;5068240;28;20275;-53
2023/10/27 03:42:34;;;;;;;6.20;2.57;;;16.20;73.40;17.30;98329.00;;;;5068244;28;20204;-54
2023/10/27 03:45:00;;;;;;;7.43;2.60;;;16.10;73.30;17.30;98324.00;;;;5068304;28;20238;-52
2023/10/27 03:47:25;;;;;;;6.23;2.50;;;16.20;73.50;17.30;98322.00;;;;5068313;28;20177;-52
2023/10/27 03:49:51;;;;;;;5.00;2.63;;;16.20;73.80;17.30;98321.00;;;;5068015;28;20180;-53
2023/10/27 03:52:17;;;;;;;4.27;2.50;;;16.20;73.90;17.30;98321.00;;;;5068236;28;20202;-54
2023/10/27 03:54:43;;;;;;;6.13;2.70;;;16.20;73.60;17.30;98313.00;;;;5068263;28;20749;-53
2023/10/27 03:57:09;;;;;;;4.63;2.50;;;16.20;73.50;17.30;98308.00;;;;5068032;28;20180;-53
2023/10/27 03:59:34;;;;;;;4.97;2.40;;;16.20;73.60;17.30;98306.00;;;;5067943;28;20212;-53
2023/10/27 04:02:00;;;;;;;6.10;2.63;;;16.20;73.70;17.30;98311.00;;;;5061434;28;20605;-54
2023/10/27 04:04:26;;;;;;;7.97;2.80;;;16.20;73.70;17.30;98306.00;;;;5060072;28;20216;-52
2023/10/27 04:06:53;;;;;;;5.60;2.60;;;16.20;73.80;17.30;98299.00;;;;5071385;28;20188;-52
2023/10/27 04:09:21;;;;;;;3.53;2.30;;;16.10;74.10;17.30;98307.00;;;;5071651;28;20680;-52
2023/10/27 04:11:47;;;;;;;7.70;2.80;;;16.10;73.90;17.30;98302.00;;;;5071404;28;20185;-53
2023/10/27 04:14:12;;;;;;;5.07;2.50;;;16.20;73.90;17.30;98307.00;;;;5071689;28;20207;-52
2023/10/27 04:16:38;;;;;;;5.50;2.70;;;16.10;74.10;17.30;98304.00;;;;5071506;28;20318;-52
2023/10/27 04:19:04;;;;;;;3.37;2.13;;;16.10;74.20;17.20;98306.00;;;;5073329;28;20270;-53
2023/10/27 04:21:30;;;;;;;6.63;2.83;;;16.20;74.10;17.30;98307.00;;;;5071474;28;20177;-52
2023/10/27 04:23:56;;;;;;;8.33;2.70;;;16.20;73.80;17.30;98310.00;;;;5071322;28;20250;-53
2023/10/27 04:26:21;;;;;;;4.77;2.53;;;16.20;73.80;17.30;98308.00;;;;5071445;28;20807;-53
2023/10/27 04:28:47;;;;;;;3.87;2.37;;;16.20;73.80;17.30;98300.00;;;;5071428;28;20178;-53
2023/10/27 04:31:13;;;;;;;4.93;2.60;;;16.20;73.80;17.30;98281.00;;;;5071632;28;20204;-53
2023/10/27 04:33:38;;;;;;;4.00;2.50;;;16.20;73.80;17.30;98300.00;;;;5071466;28;20227;-53
2023/10/27 04:36:05;;;;;;;3.97;2.37;;;16.20;73.90;17.30;98290.00;;;;5071092;28;20252;-53
2023/10/27 04:38:30;;;;;;;3.10;2.20;;;16.10;73.80;17.10;98289.00;;;;5069822;28;20180;-53
2023/10/27 04:40:56;;;;;;;5.57;2.30;;;16.10;74.00;17.30;98295.00;;;;5070445;28;20207;-53
2023/10/27 04:43:22;;;;;;;4.00;2.33;;;16.10;74.10;17.30;98296.00;;;;5071129;28;20551;-53
2023/10/27 04:45:48;;;;;;;3.27;2.13;;;16.10;73.90;17.30;98293.00;;;;5070698;28;20189;-53
2023/10/27 04:48:14;;;;;;;3.60;2.40;;;16.10;74.10;17.30;98294.00;;;;5070720;28;20185;-53
2023/10/27 04:50:39;;;;;;;4.47;2.50;;;16.10;73.90;17.30;98292.00;;;;5068970;28;20180;-53
2023/10/27 04:53:05;;;;;;;4.93;2.53;;;16.10;74.00;17.20;98288.00;;;;5070460;28;21473;-53
2023/10/27 04:55:31;;;;;;;3.53;2.33;;;16.00;74.10;17.20;98295.00;;;;5070836;28;20550;-53
2023/10/27 04:57:57;;;;;;;5.77;2.40;;;16.00;74.30;17.20;98306.00;;;;5070806;28;20192;-53
2023/10/27 05:00:23;;;;;;;5.87;2.67;;;16.00;74.00;17.20;98299.00;;;;5070004;28;20294;-53
2023/10/27 05:02:50;;;;;;;4.93;2.40;;;16.00;74.10;17.20;98296.00;;;;5070024;28;20272;-53
2023/10/27 05:05:16;;;;;;;3.83;2.50;;;16.00;74.30;17.20;98298.00;;;;5070555;28;20193;-53
2023/10/27 05:07:42;;;;;;;4.30;2.40;;;16.00;74.30;17.20;98301.00;;;;5070133;28;20252;-53
2023/10/27 05:10:08;;;;;;;5.77;3.13;;;16.00;74.20;17.20;98301.00;;;;5069928;28;20180;-53
2023/10/27 05:12:37;;;;;;;4.40;3.20;;;15.90;74.40;17.10;98297.00;;;;5070189;28;20208;-54
2023/10/27 05:15:04;;;;;;;4.13;2.60;;;16.00;74.60;17.10;98308.00;;;;5070297;28;20203;-53
2023/10/27 05:17:34;;;;;;;4.43;2.47;;;16.00;74.50;17.10;98313.00;;;;5069758;28;20181;-53
2023/10/27 05:20:02;;;;;;;4.03;2.60;;;15.90;74.40;17.20;98300.00;;;;5069922;28;20291;-53
2023/10/27 05:22:28;;;;;;;4.97;3.00;;;16.00;74.50;17.10;98305.00;;;;5070513;28;20576;-53
2023/10/27 05:24:54;;;;;;;4.00;2.70;;;15.90;74.00;17.10;98300.00;;;;5070115;28;20172;-53
2023/10/27 05:27:20;;;;;;;5.03;2.70;;;15.80;75.20;17.10;98308.00;;;;5070334;28;20209;-51
2023/10/27 05:29:45;;;;;;;4.87;2.50;;;15.90;75.40;17.10;98292.00;;;;5069680;28;20185;-52
2023/10/27 05:32:13;;;;;;;5.33;2.47;;;15.90;75.00;17.10;98300.00;;;;5069412;28;20198;-52
2023/10/27 05:34:38;;;;;;;4.60;2.43;;;16.00;74.90;17.10;98305.00;;;;5066197;28;20199;-52
2023/10/27 05:37:04;;;;;;;3.30;2.30;;;16.10;75.10;17.10;98297.00;;;;5068111;28;20658;-53
2023/10/27 05:39:30;;;;;;;3.77;2.23;;;16.10;75.10;17.10;98310.00;;;;5068159;28;20197;-52
2023/10/27 05:41:56;;;;;;;4.83;2.47;;;16.20;75.10;17.10;98307.00;;;;5068970;28;20246;-52
2023/10/27 05:44:21;;;;;;;4.00;2.40;;;16.20;75.00;17.10;98313.00;;;;5069582;28;20200;-52
2023/10/27 05:46:47;;;;;;;4.03;2.70;;;16.40;75.00;17.20;98293.00;;;;5069236;28;20240;-51
2023/10/27 05:49:13;;;;;;;3.67;2.40;;;16.40;74.70;17.30;98306.00;;;;5069601;28;20208;-52
2023/10/27 05:51:39;;;;;;;3.33;2.20;;;16.60;74.70;17.30;98311.00;;;;5068161;28;20174;-52
2023/10/27 05:54:05;;;;;;;3.30;2.17;;;16.70;74.50;17.40;98308.00;;;;5067113;28;20201;-52
2023/10/27 05:56:30;;;;;;;4.20;2.30;;;16.80;74.30;17.50;98306.00;;;;5069623;28;20192;-52
2023/10/27 05:58:56;;;;;;;4.67;2.30;;;16.90;74.20;17.50;98313.00;;;;5069288;28;20197;-52
2023/10/27 06:01:22;;;;;;;3.60;2.60;;;17.00;74.30;17.60;98306.00;;;;5059883;28;20196;-52
2023/10/27 06:03:49;;;;;;;4.37;2.13;;;17.00;74.20;17.60;98315.00;;;;5069318;28;20200;-52
2023/10/27 06:06:14;;;;;;;3.90;2.23;;;17.00;74.10;17.70;98321.00;;;;5069483;28;20176;-53
2023/10/27 06:08:44;;;;;;;4.37;2.47;;;17.20;74.40;17.70;98308.00;;;;5069348;28;20177;-53
2023/10/27 06:11:11;;;;;;;2.67;2.10;;;17.10;74.30;17.80;98314.00;;;;5068838;28;20548;-52
2023/10/27 06:13:36;;;;;;;4.40;2.30;;;17.20;74.40;17.80;98308.00;;;;5072769;28;20209;-51
2023/10/27 06:16:04;;;;;;;3.40;2.27;;;17.20;74.40;17.90;98316.00;;;;5069824;28;20252;-51
2023/10/27 06:18:30;;;;;;;2.50;2.20;;;17.30;74.50;17.90;98308.00;;;;5069160;28;20181;-53
2023/10/27 06:20:55;;;;;;;2.20;2.00;;;17.30;74.50;17.90;98301.00;;;;5068543;28;20208;-53
2023/10/27 06:23:21;;;;;;;3.13;2.03;;;17.30;74.50;18.00;98317.00;;;;5067938;28;20204;-53
2023/10/27 06:25:47;;;;;;;3.20;2.03;;;17.30;74.50;18.00;98316.00;;;;5070044;28;20599;-53
2023/10/27 06:28:13;;;;;;;2.83;2.23;;;17.30;74.50;18.00;98318.00;;;;5070662;28;20208;-53
2023/10/27 06:30:38;;;;;;;3.50;2.10;;;17.30;74.50;18.00;98324.00;;;;5068121;28;20181;-53
2023/10/27 06:33:04;;;;;;;2.23;1.90;;;17.30;74.50;18.10;98314.00;;;;5068777;28;20208;-53
2023/10/27 06:35:31;;;;;;;3.43;2.10;;;17.40;74.60;18.10;98327.00;;;;5070178;28;20260;-52
2023/10/27 06:37:56;;;;;;;2.23;2.00;;;17.40;74.70;18.10;98308.00;;;;5070247;28;20185;-52
2023/10/27 06:40:22;;;;;;;2.33;2.00;;;17.30;74.70;18.10;98317.00;;;;5068398;28;20208;-52
2023/10/27 06:42:48;;;;;;;2.90;2.10;;;17.40;74.90;18.10;98315.00;;;;5069804;28;20189;-53
2023/10/27 06:45:13;;;;;;;2.83;2.10;;;17.40;74.90;18.10;98315.00;;;;5071879;28;20628;-53
2023/10/27 06:47:40;;;;;;;2.47;2.00;;;17.40;75.60;18.20;98316.00;;;;5072308;28;20201;-52
2023/10/27 06:50:06;;;;;;;2.63;1.90;;;17.40;75.00;18.20;98311.00;;;;5068553;28;20192;-52
2023/10/27 06:52:32;;;;;;;2.80;1.90;;;17.40;74.90;18.20;98318.00;;;;5064804;28;20236;-52
2023/10/27 06:54:58;;;;;;;2.80;1.97;;;17.50;75.10;18.20;98313.00;;;;5068661;28;20174;-52
2023/10/27 06:57:24;;;;;;;2.93;2.00;;;17.50;75.00;18.20;98313.00;;;;5069010;28;20223;-52
2023/10/27 06:59:51;;;;;;;2.10;1.90;;;17.50;75.10;18.20;98315.00;;;;5067728;28;20695;-52
2023/10/27 07:02:17;;;;;;;2.73;2.10;;;17.50;75.10;18.20;98321.00;;;;5068173;28;20174;-52
2023/10/27 07:04:43;;;;;;;2.93;2.00;;;17.50;75.40;18.30;98311.00;;;;5068747;28;20351;-52
2023/10/27 07:07:09;;;;;;;2.03;1.83;;;17.50;75.00;18.30;98320.00;;;;5068549;28;20209;-52
2023/10/27 07:09:35;;;;;;;1.80;1.70;;;17.50;75.00;18.30;98319.00;;;;5068302;28;20189;-52
2023/10/27 07:12:00;;;;;;;3.30;2.23;;;17.50;75.00;18.30;98321.00;;;;5068394;28;20256;-51
2023/10/27 07:14:27;;;;;;;3.27;1.90;;;17.60;75.00;18.30;98321.00;;;;5068293;28;20189;-52
2023/10/27 07:16:54;;;;;;;2.80;1.90;;;17.60;75.00;18.30;98318.00;;;;5068247;28;20181;-52
2023/10/27 07:19:21;;;;;;;3.03;2.03;;;17.60;75.00;18.30;98322.00;;;;5066976;28;20217;-53
2023/10/27 07:21:46;;;;;;;1.97;1.77;;;17.60;75.10;18.30;98304.00;;;;5068163;28;20201;-51
2023/10/27 07:24:12;;;;;;;2.00;1.80;;;17.50;75.00;18.10;98325.00;;;;5068513;28;20914;-52
2023/10/27 07:26:38;;;;;;;1.80;1.70;;;17.60;75.10;18.30;98328.00;;;;5068697;28;20551;-52
2023/10/27 07:29:03;;;;;;;2.60;2.00;;;17.60;75.10;18.40;98321.00;;;;5068243;28;20185;-52
2023/10/27 07:31:29;;;;;;;2.20;2.00;;;17.60;75.10;18.40;98316.00;;;;5067358;28;20201;-53
2023/10/27 07:33:55;;;;;;;2.10;1.90;;;17.60;75.10;18.40;98325.00;;;;5068462;28;20208;-52
2023/10/27 07:36:21;;;;;;;2.00;1.80;;;17.60;75.00;18.40;98323.00;;;;5066967;28;20178;-53
2023/10/27 07:38:50;;;;;;;2.97;2.00;;;17.60;75.10;18.40;98325.00;;;;5068480;28;20238;-53
2023/10/27 07:41:16;;;;;;;1.97;1.77;;;17.60;75.10;18.40;98303.00;;;;5071620;28;20184;-53
2023/10/27 07:43:41;;;;;;;2.53;1.90;;;17.60;75.10;18.40;98321.00;;;;5070972;28;20217;-52
2023/10/27 07:46:07;;;;;;;2.07;1.87;;;17.60;75.20;18.40;98327.00;;;;5071801;28;20264;-52
2023/10/27 07:48:33;;;;;;;1.70;1.60;;;17.60;75.20;18.40;98328.00;;;;5070798;28;20177;-52
2023/10/27 07:50:59;;;;;;;1.80;1.70;;;17.60;75.20;18.40;98325.00;;;;5071381;28;20193;-53
2023/10/27 07:53:26;;;;;;;2.07;1.90;;;17.60;75.30;18.40;98329.00;;;;5071840;28;20207;-52
2023/10/27 07:55:53;;;;;;;2.10;1.90;;;17.60;75.40;18.40;98319.00;;;;5063884;28;20189;-52
2023/10/27 07:58:21;;;;;;;3.77;2.00;;;17.60;75.30;18.40;98327.00;;;;5072016;28;20196;-52
2023/10/27 08:00:46;;;;;;;3.77;1.80;;;17.60;75.50;18.40;98335.00;;;;5063127;28;20197;-53
2023/10/27 08:03:13;;;;;;;1.77;1.67;;;17.60;75.60;18.40;98327.00;;;;5055601;28;20189;-52
2023/10/27 08:05:38;;;;;;;2.07;1.63;;;17.60;75.60;18.40;98331.00;;;;5060641;28;20174;-53
2023/10/27 08:08:04;;;;;;;1.70;1.60;;;17.60;75.50;18.40;98328.00;;;;5070459;28;20173;-53
2023/10/27 08:10:30;;;;;;;1.90;1.80;;;17.60;75.50;18.40;98344.00;;;;5074455;28;20671;-53
2023/10/27 08:12:56;;;;;;;1.97;1.70;;;17.60;75.50;18.40;98348.00;;;;5071517;28;20286;-53
2023/10/27 08:15:23;;;;;;;2.87;2.00;;;17.60;75.50;18.40;98347.00;;;;5071127;28;20651;-52
2023/10/27 08:17:49;;;;;;;3.87;1.87;;;17.60;75.70;18.40;98354.00;;;;5064773;28;20182;-52
2023/10/27 08:20:15;;;;;;;2.47;1.80;;;17.70;75.60;18.40;98353.00;;;;5062982;28;20225;-52
2023/10/27 08:22:41;;;;;;;1.70;1.60;;;17.80;75.50;18.50;98344.00;;;;5072569;28;20193;-52
2023/10/27 08:25:07;;;;;;;2.43;1.80;;;17.90;75.40;18.50;98352.00;;;;5074594;28;20268;-52
2023/10/27 08:27:33;;;;;;;2.10;1.90;;;17.90;75.20;18.50;98363.00;;;;5069982;28;20262;-51
2023/10/27 08:29:59;;;;;;;2.50;1.70;;;18.00;75.30;18.60;98371.00;;;;5070499;28;20189;-52
2023/10/27 08:32:24;;;;;;;2.30;1.80;;;18.00;75.20;18.60;98365.00;;;;5070717;28;20209;-52
2023/10/27 08:34:50;;;;;;;5.30;1.73;;;18.10;75.20;18.70;98367.00;;;;5071246;28;20765;-51
2023/10/27 08:37:16;;;;;;;2.70;1.73;;;18.20;75.40;18.70;98371.00;;;;5069297;28;20177;-51
2023/10/27 08:39:42;;;;;;;4.80;1.60;;;18.20;75.40;18.80;98374.00;;;;5069346;28;20668;-52
2023/10/27 08:42:08;;;;;;;1.70;1.60;;;18.20;75.60;18.80;98372.00;;;;5070838;28;20670;-52
2023/10/27 08:44:34;;;;;;;3.10;1.70;;;18.20;75.90;18.80;98378.00;;;;5069678;28;20185;-52
2023/10/27 08:47:04;;;;;;;2.20;1.70;;;18.20;75.90;18.80;98371.00;;;;5069934;28;20247;-51
2023/10/27 08:49:31;;;;;;;2.73;1.77;;;18.20;75.90;18.90;98375.00;;;;5069045;28;20292;-51
2023/10/27 08:52:00;;;;;;;2.40;1.90;;;18.20;76.10;18.90;98382.00;;;;5069385;28;20222;-52
2023/10/27 08:54:26;;;;;;;2.17;1.80;;;18.30;76.20;18.90;98378.00;;;;5070702;28;20309;-52
2023/10/27 08:56:51;;;;;;;2.10;1.63;;;18.20;76.30;18.90;98375.00;;;;5058499;28;20212;-52
2023/10/27 08:59:17;;;;;;;2.73;1.80;;;18.20;76.40;18.90;98379.00;;;;5064007;28;20202;-51
2023/10/27 09:01:43;;;;;;;1.80;1.70;;;18.20;76.60;18.90;98376.00;;;;5069271;28;20181;-51
2023/10/27 09:04:13;;;;;;;1.90;1.70;;;18.20;76.80;18.90;98382.00;;;;5070439;28;20201;-52
2023/10/27 09:06:40;;;;;;;7.83;2.10;;;18.20;77.00;18.90;98380.00;;;;5066093;28;20178;-52
2023/10/27 09:09:06;;;;;;;6.07;2.40;;;18.20;77.00;18.90;98381.00;;;;5066470;28;20194;-54
2023/10/27 09:11:48;;;;;;;5.20;2.17;;;18.20;77.00;18.90;98383.00;;;;5048156;28;20197;-52
2023/10/27 09:14:27;;;;;;;7.00;2.07;;;18.20;77.00;18.90;98393.00;;;;5052498;28;20691;-52
2023/10/27 09:17:07;;;;;;;5.00;2.10;;;18.20;77.00;18.90;98394.00;;;;5062461;28;20178;-52
2023/10/27 09:19:33;;;;;;;5.23;2.10;;;18.20;76.80;18.90;98396.00;;;;5069932;28;20266;-51
2023/10/27 09:21:59;;;;;;;4.27;2.03;;;18.20;76.70;18.90;98384.00;;;;5069664;28;20181;-52
2023/10/27 09:24:32;;;;;;;4.47;2.00;;;18.20;76.70;18.90;98395.00;;;;5064000;28;20193;-51
2023/10/27 09:27:02;;;;;;;2.83;1.73;;;18.10;76.50;18.90;98401.00;;;;5061586;28;20178;-51
2023/10/27 09:29:31;;;;;;;3.03;2.00;;;18.10;76.60;18.90;98397.00;;;;5070089;28;20193;-53
2023/10/27 09:31:57;;;;;;;4.07;1.90;;;18.10;76.60;18.90;98400.00;;;;5070296;28;20260;-51
2023/10/27 09:34:25;;;;;;;3.00;1.93;;;18.10;77.40;18.90;98399.00;;;;5070216;28;20841;-52
2023/10/27 09:36:54;;;;;;;3.13;2.10;;;18.00;76.50;18.90;98404.00;;;;5069524;28;20667;-52
2023/10/27 09:39:20;;;;;;;4.87;2.00;;;18.00;76.50;18.90;98406.00;;;;5069483;28;20209;-51
2023/10/27 09:42:07;;;;;;;3.57;2.10;;;18.00;76.40;18.90;98408.00;;;;5069906;28;20707;-52
2023/10/27 09:44:45;;;;;;;3.10;1.90;;;18.00;76.40;18.80;98401.00;;;;5059165;28;20174;-52
2023/10/27 09:47:47;;;;;;;2.70;2.10;;;18.00;76.50;18.80;98395.00;;;;5049734;28;20209;-52
2023/10/27 09:50:18;;;;;;;3.00;2.00;;;18.00;76.40;18.80;98390.00;;;;5026584;28;20190;-52
2023/10/27 09:52:44;;;;;;;3.30;1.80;;;18.00;76.60;18.80;98402.00;;;;5065760;28;20284;-51
2023/10/27 09:55:12;;;;;;;3.93;2.10;;;18.00;76.80;18.80;98407.00;;;;5049367;28;20209;-52
2023/10/27 09:57:38;;;;;;;4.23;2.00;;;18.00;76.80;18.80;98412.00;;;;5047993;28;20189;-51
2023/10/27 10:00:08;;;;;;;3.60;2.00;;;18.00;76.90;18.80;98402.00;;;;5033475;28;20214;-52
2023/10/27 10:02:35;;;;;;;3.40;1.97;;;17.90;77.00;18.80;98411.00;;;;5052213;28;20642;-53
2023/10/27 10:05:00;;;;;;;3.53;1.80;;;17.90;77.20;18.80;98412.00;;;;5067861;28;20716;-52
2023/10/27 10:07:37;;;;;;;2.70;1.63;;;17.90;77.20;18.80;98414.00;;;;5071383;28;20272;-52
2023/10/27 10:10:34;;;;;;;4.23;2.10;;;17.90;77.20;18.80;98430.00;;;;5073274;28;20181;-53
2023/10/27 10:13:14;;;;;;;4.67;1.80;;;17.90;77.20;18.80;98425.00;;;;5061061;28;20205;-52
2023/10/27 10:15:41;;;;;;;6.97;2.10;;;17.90;77.10;18.70;98433.00;;;;5068562;28;20193;-53
2023/10/27 10:18:28;;;;;;;1.93;1.73;;;17.90;77.10;18.70;98430.00;;;;5070002;28;20184;-52
2023/10/27 10:20:58;;;;;;;3.90;1.93;;;17.90;77.20;18.70;98434.00;;;;5059758;28;20683;-52
2023/10/27 10:23:51;;;;;;;3.57;2.23;;;17.90;77.40;18.70;98430.00;;;;5075071;28;20212;-52
2023/10/27 10:26:17;;;;;;;3.60;2.27;;;17.90;77.40;18.70;98429.00;;;;5061861;28;20201;-51
2023/10/27 10:28:45;;;;;;;3.87;2.00;;;17.90;77.20;18.70;98430.00;;;;5061196;28;20316;-52
2023/10/27 10:31:11;;;;;;;4.33;2.23;;;18.00;76.90;18.80;98429.00;;;;5069503;28;20184;-52
2023/10/27 10:33:45;;;;;;;4.23;1.80;;;18.10;76.80;18.80;98436.00;;;;5073186;28;20205;-53
2023/10/27 10:36:32;;;;;;;2.67;1.90;;;18.10;76.70;18.90;98431.00;;;;5067054;28;20674;-52
2023/10/27 10:38:59;;;;;;;5.17;1.90;;;18.20;76.60;18.90;98436.00;;;;5056190;28;20200;-52
2023/10/27 10:41:54;;;;;;;4.23;1.93;;;18.30;76.60;18.90;98421.00;;;;5048076;28;20245;-53
2023/10/27 10:44:20;;;;;;;2.97;1.90;;;18.30;77.20;19.00;98432.00;;;;5042122;28;20273;-53
2023/10/27 10:46:46;;;;;;;3.20;1.90;;;18.40;76.30;19.00;98439.00;;;;5048446;28;20192;-52
2023/10/27 10:49:22;;;;;;;4.27;1.90;;;18.40;76.40;19.00;98432.00;;;;5066115;28;20226;-52
2023/10/27 10:51:55;;;;;;;3.47;2.00;;;18.40;76.20;19.10;98430.00;;;;5064954;28;20307;-52
2023/10/27 10:54:32;;;;;;;2.40;1.83;;;18.40;76.00;19.10;98425.00;;;;5061549;28;20802;-52